sensor_id;sensor_type;location;lat;lon;timestamp;pressure;altitude;pressure_sealevel;temperature;humidity
34506;BME280;20748;42.632;23.198;2023-03-01T00:00:15;92373.94;;;3.89;100.00
34506;BME280;20748;42.632;23.198;2023-03-01T00:02:47;92360.00;;;3.90;100.00
34506;BME280;20748;42.632;23.198;2023-03-01T00:05:19;92366.94;;;3.89;100.00
34506;BME280;20748;42.632;23.198;2023-03-01T00:07:52;92357.88;;;3.82;100.00
34506;BME280;20748;42.632;23.198;2023-03-01T00:10:25;92346.28;;;3.84;100.00
34506;BME280;20748;42.632;23.198;2023-03-01T00:12:58;92343.94;;;3.83;100.00
34506;BME280;20748;42.632;23.198;2023-03-01T00:15:30;92337.50;;;3.85;100.00
34506;BME280;20748;42.632;23.198;2023-03-01T00:18:02;92336.19;;;3.83;100.00
34506;BME280;20748;42.632;23.198;2023-03-01T00:20:35;92338.91;;;3.66;100.00
34506;BME280;20748;42.632;23.198;2023-03-01T00:23:07;92331.09;;;3.60;100.00
34506;BME280;20748;42.632;23.198;2023-03-01T00:25:41;92323.03;;;3.46;100.00
34506;BME280;20748;42.632;23.198;2023-03-01T00:28:14;92316.00;;;3.42;100.00
34506;BME280;20748;42.632;23.198;2023-03-01T00:30:47;92315.53;;;3.45;100.00
34506;BME280;20748;42.632;23.198;2023-03-01T00:33:20;92303.66;;;3.44;100.00
34506;BME280;20748;42.632;23.198;2023-03-01T00:35:52;92302.28;;;3.36;100.00
34506;BME280;20748;42.632;23.198;2023-03-01T00:38:25;92305.84;;;3.30;100.00
34506;BME280;20748;42.632;23.198;2023-03-01T00:41:03;92297.84;;;3.26;100.00
34506;BME280;20748;42.632;23.198;2023-03-01T00:43:36;92310.78;;;3.36;100.00
34506;BME280;20748;42.632;23.198;2023-03-01T00:46:10;92315.94;;;3.31;100.00
34506;BME280;20748;42.632;23.198;2023-03-01T00:48:43;92321.13;;;3.36;100.00
34506;BME280;20748;42.632;23.198;2023-03-01T00:51:18;92311.34;;;3.39;100.00
34506;BME280;20748;42.632;23.198;2023-03-01T00:53:51;92309.47;;;3.29;100.00
34506;BME280;20748;42.632;23.198;2023-03-01T00:56:25;92325.28;;;3.38;100.00
34506;BME280;20748;42.632;23.198;2023-03-01T00:58:58;92325.78;;;3.40;100.00
34506;BME280;20748;42.632;23.198;2023-03-01T01:01:31;92329.69;;;3.42;100.00
34506;BME280;20748;42.632;23.198;2023-03-01T01:04:08;92329.13;;;3.35;100.00
34506;BME280;20748;42.632;23.198;2023-03-01T01:06:43;92322.41;;;3.34;100.00
34506;BME280;20748;42.632;23.198;2023-03-01T01:09:17;92336.91;;;3.45;100.00
34506;BME280;20748;42.632;23.198;2023-03-01T01:11:51;92341.66;;;3.54;100.00
34506;BME280;20748;42.632;23.198;2023-03-01T01:14:24;92328.84;;;3.64;100.00
34506;BME280;20748;42.632;23.198;2023-03-01T01:16:56;92308.47;;;3.68;100.00
34506;BME280;20748;42.632;23.198;2023-03-01T01:19:29;92317.03;;;3.73;100.00
34506;BME280;20748;42.632;23.198;2023-03-01T01:22:01;92335.66;;;3.81;100.00
34506;BME280;20748;42.632;23.198;2023-03-01T01:24:35;92330.16;;;3.72;100.00
34506;BME280;20748;42.632;23.198;2023-03-01T01:27:08;92329.16;;;3.73;100.00
34506;BME280;20748;42.632;23.198;2023-03-01T01:29:40;92327.34;;;3.73;100.00
34506;BME280;20748;42.632;23.198;2023-03-01T01:32:13;92333.78;;;3.71;100.00
34506;BME280;20748;42.632;23.198;2023-03-01T01:34:46;92327.56;;;3.67;100.00
34506;BME280;20748;42.632;23.198;2023-03-01T01:37:18;92334.75;;;3.65;100.00
34506;BME280;20748;42.632;23.198;2023-03-01T01:39:50;92331.38;;;3.59;100.00
34506;BME280;20748;42.632;23.198;2023-03-01T01:42:23;92337.59;;;3.63;100.00
34506;BME280;20748;42.632;23.198;2023-03-01T01:45:31;92339.31;;;3.52;100.00
34506;BME280;20748;42.632;23.198;2023-03-01T01:48:09;92336.41;;;3.43;100.00
34506;BME280;20748;42.632;23.198;2023-03-01T01:50:42;92331.09;;;3.28;100.00
34506;BME280;20748;42.632;23.198;2023-03-01T01:53:18;92337.28;;;3.27;100.00
34506;BME280;20748;42.632;23.198;2023-03-01T01:55:53;92329.81;;;3.25;100.00
34506;BME280;20748;42.632;23.198;2023-03-01T01:58:29;92326.16;;;3.21;100.00
34506;BME280;20748;42.632;23.198;2023-03-01T02:01:03;92314.81;;;3.22;100.00
34506;BME280;20748;42.632;23.198;2023-03-01T02:03:38;92312.75;;;3.24;100.00
34506;BME280;20748;42.632;23.198;2023-03-01T02:06:18;92303.97;;;3.20;100.00
34506;BME280;20748;42.632;23.198;2023-03-01T02:08:52;92292.06;;;3.19;100.00
34506;BME280;20748;42.632;23.198;2023-03-01T02:11:25;92286.72;;;3.26;100.00
34506;BME280;20748;42.632;23.198;2023-03-01T02:14:00;92284.94;;;3.26;100.00
34506;BME280;20748;42.632;23.198;2023-03-01T02:16:32;92290.34;;;3.25;100.00
34506;BME280;20748;42.632;23.198;2023-03-01T02:19:06;92281.75;;;3.14;100.00
34506;BME280;20748;42.632;23.198;2023-03-01T02:21:48;92281.09;;;3.01;100.00
34506;BME280;20748;42.632;23.198;2023-03-01T02:24:30;92282.16;;;3.05;100.00
34506;BME280;20748;42.632;23.198;2023-03-01T02:27:06;92290.19;;;3.09;100.00
34506;BME280;20748;42.632;23.198;2023-03-01T02:29:40;92293.56;;;3.09;100.00
34506;BME280;20748;42.632;23.198;2023-03-01T02:32:16;92292.19;;;3.02;100.00
34506;BME280;20748;42.632;23.198;2023-03-01T02:34:56;92292.09;;;2.91;100.00
34506;BME280;20748;42.632;23.198;2023-03-01T02:37:29;92286.53;;;2.77;100.00
34506;BME280;20748;42.632;23.198;2023-03-01T02:40:05;92273.19;;;2.80;100.00
34506;BME280;20748;42.632;23.198;2023-03-01T02:42:45;92279.41;;;2.85;100.00
34506;BME280;20748;42.632;23.198;2023-03-01T02:45:20;92276.56;;;2.86;100.00
34506;BME280;20748;42.632;23.198;2023-03-01T02:47:53;92279.59;;;2.78;100.00
34506;BME280;20748;42.632;23.198;2023-03-01T02:50:46;92274.19;;;2.79;100.00
34506;BME280;20748;42.632;23.198;2023-03-01T02:53:28;92279.53;;;2.73;100.00
34506;BME280;20748;42.632;23.198;2023-03-01T02:56:07;92277.84;;;2.84;100.00
34506;BME280;20748;42.632;23.198;2023-03-01T02:58:45;92285.56;;;2.84;100.00
34506;BME280;20748;42.632;23.198;2023-03-01T03:01:23;92276.00;;;2.79;100.00
34506;BME280;20748;42.632;23.198;2023-03-01T03:04:15;92286.06;;;2.80;100.00
34506;BME280;20748;42.632;23.198;2023-03-01T03:06:51;92282.13;;;2.73;100.00
34506;BME280;20748;42.632;23.198;2023-03-01T03:09:23;92278.22;;;2.70;100.00
34506;BME280;20748;42.632;23.198;2023-03-01T03:11:56;92283.38;;;2.70;100.00
34506;BME280;20748;42.632;23.198;2023-03-01T03:14:28;92285.88;;;2.65;100.00
34506;BME280;20748;42.632;23.198;2023-03-01T03:17:01;92281.03;;;2.68;100.00
34506;BME280;20748;42.632;23.198;2023-03-01T03:19:38;92280.28;;;2.68;100.00
34506;BME280;20748;42.632;23.198;2023-03-01T03:22:10;92283.09;;;2.66;100.00
34506;BME280;20748;42.632;23.198;2023-03-01T03:24:42;92280.22;;;2.63;100.00
34506;BME280;20748;42.632;23.198;2023-03-01T03:27:15;92273.84;;;2.71;100.00
34506;BME280;20748;42.632;23.198;2023-03-01T03:29:47;92276.97;;;2.73;100.00
34506;BME280;20748;42.632;23.198;2023-03-01T03:32:20;92272.25;;;2.64;100.00
34506;BME280;20748;42.632;23.198;2023-03-01T03:34:52;92273.00;;;2.65;100.00
34506;BME280;20748;42.632;23.198;2023-03-01T03:37:25;92282.31;;;2.66;100.00
34506;BME280;20748;42.632;23.198;2023-03-01T03:40:15;92282.34;;;2.71;100.00
34506;BME280;20748;42.632;23.198;2023-03-01T03:42:48;92283.66;;;2.74;100.00
34506;BME280;20748;42.632;23.198;2023-03-01T03:45:20;92286.19;;;2.68;100.00
34506;BME280;20748;42.632;23.198;2023-03-01T03:47:53;92284.91;;;2.66;100.00
34506;BME280;20748;42.632;23.198;2023-03-01T03:50:26;92285.22;;;2.75;100.00
34506;BME280;20748;42.632;23.198;2023-03-01T03:53:00;92283.97;;;2.77;100.00
34506;BME280;20748;42.632;23.198;2023-03-01T03:55:33;92283.59;;;2.68;100.00
34506;BME280;20748;42.632;23.198;2023-03-01T03:58:06;92290.06;;;2.71;100.00
34506;BME280;20748;42.632;23.198;2023-03-01T04:00:43;92289.38;;;2.76;100.00
34506;BME280;20748;42.632;23.198;2023-03-01T04:03:16;92285.09;;;2.87;100.00
34506;BME280;20748;42.632;23.198;2023-03-01T04:05:50;92298.72;;;2.82;100.00
34506;BME280;20748;42.632;23.198;2023-03-01T04:08:23;92289.09;;;2.77;100.00
34506;BME280;20748;42.632;23.198;2023-03-01T04:11:00;92295.69;;;2.90;100.00
34506;BME280;20748;42.632;23.198;2023-03-01T04:13:56;92293.91;;;2.91;100.00
34506;BME280;20748;42.632;23.198;2023-03-01T04:16:28;92297.53;;;2.95;100.00
34506;BME280;20748;42.632;23.198;2023-03-01T04:19:02;92297.41;;;2.79;100.00
34506;BME280;20748;42.632;23.198;2023-03-01T04:21:35;92303.13;;;2.87;100.00
34506;BME280;20748;42.632;23.198;2023-03-01T04:24:08;92297.97;;;2.87;100.00
34506;BME280;20748;42.632;23.198;2023-03-01T04:26:41;92305.19;;;2.85;100.00
34506;BME280;20748;42.632;23.198;2023-03-01T04:29:13;92300.56;;;2.87;100.00
34506;BME280;20748;42.632;23.198;2023-03-01T04:31:47;92306.53;;;2.92;100.00
34506;BME280;20748;42.632;23.198;2023-03-01T04:34:21;92292.44;;;3.00;100.00
34506;BME280;20748;42.632;23.198;2023-03-01T04:36:54;92292.03;;;2.86;100.00
34506;BME280;20748;42.632;23.198;2023-03-01T04:39:26;92286.28;;;2.79;100.00
34506;BME280;20748;42.632;23.198;2023-03-01T04:41:58;92285.31;;;2.85;100.00
34506;BME280;20748;42.632;23.198;2023-03-01T04:44:31;92293.22;;;2.73;100.00
34506;BME280;20748;42.632;23.198;2023-03-01T04:47:03;92285.09;;;2.87;100.00
34506;BME280;20748;42.632;23.198;2023-03-01T04:49:36;92286.94;;;2.91;100.00
34506;BME280;20748;42.632;23.198;2023-03-01T04:52:08;92286.16;;;2.91;100.00
34506;BME280;20748;42.632;23.198;2023-03-01T04:54:41;92288.47;;;2.87;100.00
34506;BME280;20748;42.632;23.198;2023-03-01T04:57:14;92292.03;;;2.86;100.00
34506;BME280;20748;42.632;23.198;2023-03-01T04:59:47;92291.44;;;2.79;100.00
34506;BME280;20748;42.632;23.198;2023-03-01T05:02:19;92290.44;;;2.80;100.00
34506;BME280;20748;42.632;23.198;2023-03-01T05:04:52;92289.44;;;2.81;100.00
34506;BME280;20748;42.632;23.198;2023-03-01T05:07:29;92293.97;;;2.74;100.00
34506;BME280;20748;42.632;23.198;2023-03-01T05:10:01;92305.34;;;2.78;100.00
34506;BME280;20748;42.632;23.198;2023-03-01T05:12:33;92299.72;;;2.81;100.00
34506;BME280;20748;42.632;23.198;2023-03-01T05:15:06;92311.66;;;2.87;100.00
34506;BME280;20748;42.632;23.198;2023-03-01T05:17:39;92301.56;;;2.86;100.00
34506;BME280;20748;42.632;23.198;2023-03-01T05:20:12;92308.06;;;2.88;100.00
34506;BME280;20748;42.632;23.198;2023-03-01T05:22:45;92316.59;;;2.94;100.00
34506;BME280;20748;42.632;23.198;2023-03-01T05:25:17;92307.81;;;2.90;100.00
34506;BME280;20748;42.632;23.198;2023-03-01T05:27:50;92307.03;;;2.89;100.00
34506;BME280;20748;42.632;23.198;2023-03-01T05:30:22;92309.66;;;2.94;100.00
34506;BME280;20748;42.632;23.198;2023-03-01T05:32:54;92311.50;;;2.99;100.00
34506;BME280;20748;42.632;23.198;2023-03-01T05:35:27;92308.75;;;3.06;100.00
34506;BME280;20748;42.632;23.198;2023-03-01T05:38:01;92314.03;;;3.21;100.00
34506;BME280;20748;42.632;23.198;2023-03-01T05:40:34;92316.88;;;3.20;100.00
34506;BME280;20748;42.632;23.198;2023-03-01T05:43:06;92314.53;;;3.18;100.00
34506;BME280;20748;42.632;23.198;2023-03-01T05:45:39;92317.34;;;3.17;100.00
34506;BME280;20748;42.632;23.198;2023-03-01T05:48:12;92320.94;;;3.16;100.00
34506;BME280;20748;42.632;23.198;2023-03-01T05:50:46;92324.09;;;3.23;100.00
34506;BME280;20748;42.632;23.198;2023-03-01T05:53:19;92332.91;;;3.27;100.00
34506;BME280;20748;42.632;23.198;2023-03-01T05:55:52;92326.19;;;3.26;100.00
34506;BME280;20748;42.632;23.198;2023-03-01T05:58:25;92334.41;;;3.23;100.00
34506;BME280;20748;42.632;23.198;2023-03-01T06:00:57;92333.94;;;3.26;100.00
34506;BME280;20748;42.632;23.198;2023-03-01T06:03:29;92343.22;;;3.27;100.00
34506;BME280;20748;42.632;23.198;2023-03-01T06:06:02;92350.38;;;3.20;100.00
34506;BME280;20748;42.632;23.198;2023-03-01T06:08:35;92357.44;;;3.30;100.00
34506;BME280;20748;42.632;23.198;2023-03-01T06:11:07;92362.09;;;3.33;100.00
34506;BME280;20748;42.632;23.198;2023-03-01T06:13:41;92366.00;;;3.35;100.00
34506;BME280;20748;42.632;23.198;2023-03-01T06:16:14;92366.19;;;3.29;100.00
34506;BME280;20748;42.632;23.198;2023-03-01T06:18:46;92358.47;;;3.29;100.00
34506;BME280;20748;42.632;23.198;2023-03-01T06:21:19;92367.94;;;3.23;100.00
34506;BME280;20748;42.632;23.198;2023-03-01T06:23:52;92366.09;;;3.18;100.00
34506;BME280;20748;42.632;23.198;2023-03-01T06:26:24;92375.72;;;3.28;100.00
34506;BME280;20748;42.632;23.198;2023-03-01T06:28:56;92369.31;;;3.31;100.00
34506;BME280;20748;42.632;23.198;2023-03-01T06:31:28;92371.84;;;3.26;100.00
34506;BME280;20748;42.632;23.198;2023-03-01T06:34:01;92367.25;;;3.33;100.00
34506;BME280;20748;42.632;23.198;2023-03-01T06:36:34;92367.66;;;3.19;100.00
34506;BME280;20748;42.632;23.198;2023-03-01T06:39:06;92363.81;;;3.22;100.00
34506;BME280;20748;42.632;23.198;2023-03-01T06:41:39;92370.28;;;3.25;100.00
34506;BME280;20748;42.632;23.198;2023-03-01T06:44:11;92364.34;;;3.24;100.00
34506;BME280;20748;42.632;23.198;2023-03-01T06:46:43;92372.34;;;3.28;100.00
34506;BME280;20748;42.632;23.198;2023-03-01T06:49:16;92370.16;;;3.42;100.00
34506;BME280;20748;42.632;23.198;2023-03-01T06:51:50;92376.25;;;3.30;100.00
34506;BME280;20748;42.632;23.198;2023-03-01T06:54:22;92377.84;;;3.31;100.00
34506;BME280;20748;42.632;23.198;2023-03-01T06:56:55;92375.25;;;3.31;100.00
34506;BME280;20748;42.632;23.198;2023-03-01T06:59:27;92378.94;;;3.41;100.00
34506;BME280;20748;42.632;23.198;2023-03-01T07:01:59;92368.91;;;3.44;100.00
34506;BME280;20748;42.632;23.198;2023-03-01T07:04:32;92378.47;;;3.44;100.00
34506;BME280;20748;42.632;23.198;2023-03-01T07:07:05;92381.56;;;3.46;100.00
34506;BME280;20748;42.632;23.198;2023-03-01T07:09:37;92379.50;;;3.43;100.00
34506;BME280;20748;42.632;23.198;2023-03-01T07:12:10;92373.53;;;3.42;100.00
34506;BME280;20748;42.632;23.198;2023-03-01T07:14:43;92375.72;;;3.56;100.00
34506;BME280;20748;42.632;23.198;2023-03-01T07:17:16;92371.13;;;3.63;100.00
34506;BME280;20748;42.632;23.198;2023-03-01T07:19:48;92369.56;;;3.62;100.00
34506;BME280;20748;42.632;23.198;2023-03-01T07:22:21;92363.09;;;3.59;100.00
34506;BME280;20748;42.632;23.198;2023-03-01T07:24:53;92368.53;;;3.58;100.00
34506;BME280;20748;42.632;23.198;2023-03-01T07:27:26;92363.38;;;3.58;100.00
34506;BME280;20748;42.632;23.198;2023-03-01T07:29:58;92364.38;;;3.57;100.00
34506;BME280;20748;42.632;23.198;2023-03-01T07:32:30;92365.72;;;3.65;100.00
34506;BME280;20748;42.632;23.198;2023-03-01T07:35:03;92374.69;;;3.57;100.00
34506;BME280;20748;42.632;23.198;2023-03-01T07:37:36;92375.28;;;3.64;100.00
34506;BME280;20748;42.632;23.198;2023-03-01T07:40:09;92372.50;;;3.71;100.00
34506;BME280;20748;42.632;23.198;2023-03-01T07:42:42;92368.25;;;3.59;100.00
34506;BME280;20748;42.632;23.198;2023-03-01T07:45:14;92364.22;;;3.69;100.00
34506;BME280;20748;42.632;23.198;2023-03-01T07:47:46;92367.53;;;3.64;100.00
34506;BME280;20748;42.632;23.198;2023-03-01T07:50:19;92359.59;;;3.71;100.00
34506;BME280;20748;42.632;23.198;2023-03-01T07:52:52;92365.31;;;3.78;100.00
34506;BME280;20748;42.632;23.198;2023-03-01T07:55:25;92357.56;;;3.73;100.00
34506;BME280;20748;42.632;23.198;2023-03-01T07:57:57;92361.72;;;3.79;100.00
34506;BME280;20748;42.632;23.198;2023-03-01T08:00:29;92354.00;;;3.79;100.00
34506;BME280;20748;42.632;23.198;2023-03-01T08:03:02;92352.25;;;3.90;100.00
34506;BME280;20748;42.632;23.198;2023-03-01T08:05:34;92351.78;;;3.93;100.00
34506;BME280;20748;42.632;23.198;2023-03-01T08:08:08;92353.81;;;3.91;100.00
34506;BME280;20748;42.632;23.198;2023-03-01T08:10:40;92346.84;;;3.92;100.00
34506;BME280;20748;42.632;23.198;2023-03-01T08:13:12;92351.00;;;3.98;100.00
34506;BME280;20748;42.632;23.198;2023-03-01T08:15:45;92341.22;;;4.00;100.00
34506;BME280;20748;42.632;23.198;2023-03-01T08:18:18;92350.63;;;4.16;100.00
34506;BME280;20748;42.632;23.198;2023-03-01T08:20:51;92345.28;;;4.28;100.00
34506;BME280;20748;42.632;23.198;2023-03-01T08:23:24;92355.34;;;4.30;100.00
34506;BME280;20748;42.632;23.198;2023-03-01T08:26:04;92354.09;;;4.38;100.00
34506;BME280;20748;42.632;23.198;2023-03-01T08:28:36;92356.16;;;4.36;100.00
34506;BME280;20748;42.632;23.198;2023-03-01T08:31:17;92352.03;;;4.40;100.00
34506;BME280;20748;42.632;23.198;2023-03-01T08:33:52;92352.56;;;4.42;100.00
34506;BME280;20748;42.632;23.198;2023-03-01T08:36:28;92346.84;;;4.35;100.00
34506;BME280;20748;42.632;23.198;2023-03-01T08:39:02;92357.19;;;4.40;100.00
34506;BME280;20748;42.632;23.198;2023-03-01T08:41:35;92348.47;;;4.51;100.00
34506;BME280;20748;42.632;23.198;2023-03-01T08:44:09;92348.75;;;4.60;100.00
34506;BME280;20748;42.632;23.198;2023-03-01T08:46:43;92350.28;;;4.51;100.00
34506;BME280;20748;42.632;23.198;2023-03-01T08:49:18;92348.47;;;4.51;100.00
34506;BME280;20748;42.632;23.198;2023-03-01T08:51:51;92353.63;;;4.51;100.00
34506;BME280;20748;42.632;23.198;2023-03-01T08:54:24;92358.63;;;4.68;100.00
34506;BME280;20748;42.632;23.198;2023-03-01T08:56:56;92350.06;;;4.63;100.00
34506;BME280;20748;42.632;23.198;2023-03-01T08:59:30;92344.44;;;4.71;100.00
34506;BME280;20748;42.632;23.198;2023-03-01T09:02:11;92346.44;;;4.64;100.00
34506;BME280;20748;42.632;23.198;2023-03-01T09:04:44;92344.44;;;4.81;100.00
34506;BME280;20748;42.632;23.198;2023-03-01T09:07:17;92343.72;;;4.86;100.00
34506;BME280;20748;42.632;23.198;2023-03-01T09:09:50;92352.75;;;4.83;100.00
34506;BME280;20748;42.632;23.198;2023-03-01T09:12:25;92346.56;;;4.90;100.00
34506;BME280;20748;42.632;23.198;2023-03-01T09:14:57;92344.28;;;5.04;100.00
34506;BME280;20748;42.632;23.198;2023-03-01T09:17:30;92332.88;;;5.00;100.00
34506;BME280;20748;42.632;23.198;2023-03-01T09:20:02;92340.69;;;5.15;100.00
34506;BME280;20748;42.632;23.198;2023-03-01T09:22:37;92331.66;;;5.18;100.00
34506;BME280;20748;42.632;23.198;2023-03-01T09:25:10;92334.47;;;5.16;100.00
34506;BME280;20748;42.632;23.198;2023-03-01T09:27:42;92332.16;;;5.20;100.00
34506;BME280;20748;42.632;23.198;2023-03-01T09:30:15;92335.78;;;5.19;100.00
34506;BME280;20748;42.632;23.198;2023-03-01T09:32:48;92332.91;;;5.10;100.00
34506;BME280;20748;42.632;23.198;2023-03-01T09:35:20;92317.44;;;5.36;100.00
34506;BME280;20748;42.632;23.198;2023-03-01T09:37:54;92322.13;;;5.44;100.00
34506;BME280;20748;42.632;23.198;2023-03-01T09:40:34;92287.41;;;5.24;100.00
34506;BME280;20748;42.632;23.198;2023-03-01T09:43:15;92326.25;;;5.40;100.00
34506;BME280;20748;42.632;23.198;2023-03-01T09:45:53;92330.34;;;5.31;100.00
34506;BME280;20748;42.632;23.198;2023-03-01T09:48:31;92318.97;;;5.37;100.00
34506;BME280;20748;42.632;23.198;2023-03-01T09:51:08;92318.47;;;5.40;100.00
34506;BME280;20748;42.632;23.198;2023-03-01T09:53:44;92311.75;;;5.44;100.00
34506;BME280;20748;42.632;23.198;2023-03-01T09:56:20;92295.69;;;5.37;100.00
34506;BME280;20748;42.632;23.198;2023-03-01T09:58:58;92309.69;;;5.62;100.00
34506;BME280;20748;42.632;23.198;2023-03-01T10:01:37;92303.47;;;5.63;100.00
34506;BME280;20748;42.632;23.198;2023-03-01T10:04:26;92303.22;;;5.44;100.00
34506;BME280;20748;42.632;23.198;2023-03-01T10:07:10;92306.59;;;5.39;100.00
34506;BME280;20748;42.632;23.198;2023-03-01T10:09:47;92298.53;;;5.46;100.00
34506;BME280;20748;42.632;23.198;2023-03-01T10:12:23;92300.34;;;5.66;100.00
34506;BME280;20748;42.632;23.198;2023-03-01T10:15:01;92296.72;;;5.67;100.00
34506;BME280;20748;42.632;23.198;2023-03-01T10:17:36;92288.19;;;5.56;100.00
34506;BME280;20748;42.632;23.198;2023-03-01T10:20:20;92299.06;;;5.63;100.00
34506;BME280;20748;42.632;23.198;2023-03-01T10:22:53;92292.88;;;5.59;100.00
34506;BME280;20748;42.632;23.198;2023-03-01T10:25:38;92296.72;;;5.77;100.00
34506;BME280;20748;42.632;23.198;2023-03-01T10:28:19;92298.56;;;5.77;100.00
34506;BME280;20748;42.632;23.198;2023-03-01T10:30:57;92286.91;;;5.69;100.00
34506;BME280;20748;42.632;23.198;2023-03-01T10:33:32;92293.63;;;5.60;100.00
34506;BME280;20748;42.632;23.198;2023-03-01T10:36:07;92292.09;;;5.69;100.00
34506;BME280;20748;42.632;23.198;2023-03-01T10:38:53;92292.34;;;5.62;100.00
34506;BME280;20748;42.632;23.198;2023-03-01T10:41:27;92285.34;;;5.42;100.00
34506;BME280;20748;42.632;23.198;2023-03-01T10:44:00;92294.66;;;5.48;100.00
34506;BME280;20748;42.632;23.198;2023-03-01T10:46:33;92290.78;;;5.56;100.00
34506;BME280;20748;42.632;23.198;2023-03-01T10:49:14;92284.84;;;5.56;100.00
34506;BME280;20748;42.632;23.198;2023-03-01T10:51:48;92281.47;;;5.45;100.00
34506;BME280;20748;42.632;23.198;2023-03-01T10:54:25;92289.47;;;5.43;100.00
34506;BME280;20748;42.632;23.198;2023-03-01T10:57:01;92290.03;;;5.56;100.00
34506;BME280;20748;42.632;23.198;2023-03-01T10:59:36;92287.41;;;5.61;100.00
34506;BME280;20748;42.632;23.198;2023-03-01T11:02:17;92303.72;;;5.67;100.00
34506;BME280;20748;42.632;23.198;2023-03-01T11:05:01;92297.78;;;5.56;100.00
34506;BME280;20748;42.632;23.198;2023-03-01T11:07:46;92294.16;;;5.62;100.00
34506;BME280;20748;42.632;23.198;2023-03-01T11:10:22;92289.50;;;5.59;100.00
34506;BME280;20748;42.632;23.198;2023-03-01T11:13:06;92296.72;;;5.72;100.00
34506;BME280;20748;42.632;23.198;2023-03-01T11:15:39;92293.38;;;5.72;100.00
34506;BME280;20748;42.632;23.198;2023-03-01T11:18:21;92294.44;;;5.71;100.00
34506;BME280;20748;42.632;23.198;2023-03-01T11:21:03;92284.81;;;5.76;100.00
34506;BME280;20748;42.632;23.198;2023-03-01T11:23:39;92293.09;;;5.84;100.00
34506;BME280;20748;42.632;23.198;2023-03-01T11:26:13;92284.81;;;5.92;100.00
34506;BME280;20748;42.632;23.198;2023-03-01T11:28:51;92273.41;;;5.88;100.00
34506;BME280;20748;42.632;23.198;2023-03-01T11:31:27;92279.09;;;5.85;100.00
34506;BME280;20748;42.632;23.198;2023-03-01T11:34:06;92269.28;;;5.82;100.00
34506;BME280;20748;42.632;23.198;2023-03-01T11:36:46;92261.50;;;5.87;100.00
34506;BME280;20748;42.632;23.198;2023-03-01T11:39:27;92257.91;;;5.72;100.00
34506;BME280;20748;42.632;23.198;2023-03-01T11:42:06;92247.53;;;5.77;100.00
34506;BME280;20748;42.632;23.198;2023-03-01T11:44:53;92246.00;;;5.76;100.00
34506;BME280;20748;42.632;23.198;2023-03-01T11:50:35;92238.19;;;5.92;100.00
34506;BME280;20748;42.632;23.198;2023-03-01T11:56:27;92237.66;;;6.00;100.00
34506;BME280;20748;42.632;23.198;2023-03-01T11:59:15;92231.44;;;6.01;100.00
34506;BME280;20748;42.632;23.198;2023-03-01T12:02:07;92239.22;;;5.96;100.00
34506;BME280;20748;42.632;23.198;2023-03-01T12:04:57;92228.34;;;5.94;100.00
34506;BME280;20748;42.632;23.198;2023-03-01T12:07:40;92229.41;;;6.03;100.00
34506;BME280;20748;42.632;23.198;2023-03-01T12:10:23;92229.88;;;6.00;100.00
34506;BME280;20748;42.632;23.198;2023-03-01T12:13:17;92226.53;;;6.00;100.00
34506;BME280;20748;42.632;23.198;2023-03-01T12:16:09;92226.53;;;6.00;100.00
34506;BME280;20748;42.632;23.198;2023-03-01T12:22:29;92226.00;;;5.93;100.00
34506;BME280;20748;42.632;23.198;2023-03-01T12:28:17;92224.44;;;6.02;100.00
34506;BME280;20748;42.632;23.198;2023-03-01T12:31:05;92222.91;;;5.96;100.00
34506;BME280;20748;42.632;23.198;2023-03-01T12:33:49;92228.84;;;6.12;100.00
34506;BME280;20748;42.632;23.198;2023-03-01T12:36:35;92221.63;;;6.09;100.00
34506;BME280;20748;42.632;23.198;2023-03-01T12:39:24;92219.75;;;6.20;100.00
34506;BME280;20748;42.632;23.198;2023-03-01T12:42:04;92218.72;;;6.21;100.00
34506;BME280;20748;42.632;23.198;2023-03-01T12:47:52;92215.56;;;6.29;100.00
34506;BME280;20748;42.632;23.198;2023-03-01T12:50:38;92214.25;;;6.37;100.00
34506;BME280;20748;42.632;23.198;2023-03-01T12:53:21;92217.28;;;6.49;100.00
34506;BME280;20748;42.632;23.198;2023-03-01T12:55:58;92217.81;;;6.51;100.00
34506;BME280;20748;42.632;23.198;2023-03-01T12:58:34;92225.84;;;6.50;100.00
34506;BME280;20748;42.632;23.198;2023-03-01T13:01:28;92227.38;;;6.56;100.00
34506;BME280;20748;42.632;23.198;2023-03-01T13:07:25;92223.50;;;6.53;100.00
34506;BME280;20748;42.632;23.198;2023-03-01T13:10:13;92230.00;;;6.51;100.00
34506;BME280;20748;42.632;23.198;2023-03-01T13:13:01;92233.59;;;6.60;100.00
34506;BME280;20748;42.632;23.198;2023-03-01T13:15:35;92227.84;;;6.63;100.00
34506;BME280;20748;42.632;23.198;2023-03-01T13:18:28;92233.38;;;6.51;100.00
34506;BME280;20748;42.632;23.198;2023-03-01T13:21:02;92233.66;;;6.39;100.00
34506;BME280;20748;42.632;23.198;2023-03-01T13:23:37;92231.63;;;6.36;100.00
34506;BME280;20748;42.632;23.198;2023-03-01T13:26:13;92235.53;;;6.28;100.00
34506;BME280;20748;42.632;23.198;2023-03-01T13:28:52;92237.06;;;6.35;100.00
34506;BME280;20748;42.632;23.198;2023-03-01T13:34:41;92231.66;;;6.26;100.00
34506;BME280;20748;42.632;23.198;2023-03-01T13:37:24;92236.63;;;6.12;100.00
34506;BME280;20748;42.632;23.198;2023-03-01T13:39:59;92235.31;;;6.14;100.00
34506;BME280;20748;42.632;23.198;2023-03-01T13:42:39;92223.66;;;6.12;100.00
34506;BME280;20748;42.632;23.198;2023-03-01T13:45:25;92219.25;;;6.17;100.00
34506;BME280;20748;42.632;23.198;2023-03-01T13:48:09;92223.63;;;6.27;100.00
34506;BME280;20748;42.632;23.198;2023-03-01T13:50:46;92225.44;;;6.22;100.00
34506;BME280;20748;42.632;23.198;2023-03-01T13:53:22;92215.06;;;6.22;100.00
34506;BME280;20748;42.632;23.198;2023-03-01T13:55:57;92214.56;;;6.25;100.00